Time;durP1;ratioP1;P1;durP2;ratioP2;P2;SDS_P1;SDS_P2;PMS_P1;PMS_P2;Temp;Humidity;BMP_temperature;BMP_pressure;BME280_temperature;BME280_humidity;BME280_pressure;Samples;Min_cycle;Max_cycle;Signal;HPM_P1;HPM_P2
2022/04/09 00:01:29;;;;;;;;;;;384.40;2124.80;;;;;;4834999;29;19908;-74
2022/04/09 00:03:54;;;;;;;;;;;384.40;2099.20;;;;;;4834226;29;19924;-76
2022/04/09 00:06:20;;;;;;;;;;;384.40;2099.20;;;;;;4833586;29;19914;-79
2022/04/09 00:08:45;;;;;;;;;;;384.40;2099.20;;;;;;4835080;29;19913;-79
2022/04/09 00:11:11;;;;;;;;;;;384.40;2099.20;;;;;;4833686;29;19957;-78
2022/04/09 00:13:37;;;;;;;;;;;384.40;2124.80;;;;;;4834014;29;19924;-69
2022/04/09 00:16:02;;;;;;;;;;;384.40;2124.80;;;;;;4834999;29;19981;-79
2022/04/09 00:18:28;;;;;;;;;;;384.30;2124.80;;;;;;4833214;29;19915;-80
2022/04/09 00:20:55;;;;;;;;;;;384.30;2124.80;;;;;;4834156;29;19991;-70
2022/04/09 00:23:23;;;;;;;;;;;384.30;2124.80;;;;;;4834896;29;19917;-81
2022/04/09 00:25:49;;;;;;;;;;;384.30;2124.80;;;;;;4834872;29;19979;-79
2022/04/09 00:28:14;;;;;;;;;;;384.30;2124.80;;;;;;4833866;29;19913;-80
2022/04/09 00:30:40;;;;;;;;;;;384.30;2124.80;;;;;;4830900;29;19969;-80
2022/04/09 00:33:06;;;;;;;;;;;384.30;2099.20;;;;;;4825151;29;19999;-70
2022/04/09 00:35:32;;;;;;;;;;;384.30;2124.80;;;;;;4825088;29;19965;-79
2022/04/09 00:37:58;;;;;;;;;;;384.40;2099.20;;;;;;4826044;29;19909;-78
2022/04/09 00:40:24;;;;;;;;;;;384.40;2099.20;;;;;;4824983;29;19909;-71
2022/04/09 00:42:50;;;;;;;;;;;384.40;2099.20;;;;;;4824994;29;19986;-76
2022/04/09 00:45:16;;;;;;;;;;;384.30;2099.20;;;;;;4825004;29;19967;-77
2022/04/09 00:47:42;;;;;;;;;;;384.30;2099.20;;;;;;4825345;29;19913;-73
2022/04/09 00:50:08;;;;;;;;;;;384.30;2099.20;;;;;;4825050;29;19917;-69
2022/04/09 00:52:35;;;;;;;;;;;384.20;2099.20;;;;;;4825310;29;19931;-73
2022/04/09 00:55:04;;;;;;;;;;;384.30;2073.60;;;;;;4824978;29;19916;-80
2022/04/09 00:57:32;;;;;;;;;;;384.30;2073.60;;;;;;4825235;29;20282;-69
2022/04/09 00:59:58;;;;;;;;;;;384.30;2099.20;;;;;;4824811;29;19916;-79
2022/04/09 01:02:24;;;;;;;;;;;384.30;2073.60;;;;;;4825087;29;19959;-70
2022/04/09 01:04:50;;;;;;;;;;;384.40;2073.60;;;;;;4824847;29;19965;-80
2022/04/09 01:07:16;;;;;;;;;;;384.40;2048.00;;;;;;4824865;29;19913;-72
2022/04/09 01:09:45;;;;;;;;;;;384.50;2048.00;;;;;;4825156;29;20239;-73
2022/04/09 01:12:10;;;;;;;;;;;384.50;2022.40;;;;;;4824717;29;19955;-80
2022/04/09 01:14:36;;;;;;;;;;;384.60;2022.40;;;;;;4824671;29;19951;-71
2022/04/09 01:17:02;;;;;;;;;;;384.60;2048.00;;;;;;4824691;29;19909;-77
2022/04/09 01:19:28;;;;;;;;;;;384.60;2022.40;;;;;;4824774;29;19909;-70
2022/04/09 01:21:57;;;;;;;;;;;384.60;2022.40;;;;;;4824611;29;20370;-78
2022/04/09 01:24:22;;;;;;;;;;;384.60;2022.40;;;;;;4824793;29;19999;-79
2022/04/09 01:26:48;;;;;;;;;;;384.60;2048.00;;;;;;4826392;29;19996;-70
2022/04/09 01:29:14;;;;;;;;;;;384.60;2048.00;;;;;;4828039;29;19973;-71
2022/04/09 01:31:40;;;;;;;;;;;384.50;2048.00;;;;;;4827956;29;20331;-70
2022/04/09 01:34:06;;;;;;;;;;;384.50;2048.00;;;;;;4828078;29;19909;-79
2022/04/09 01:36:31;;;;;;;;;;;384.50;2048.00;;;;;;4827880;29;19916;-69
2022/04/09 01:38:57;;;;;;;;;;;384.60;2048.00;;;;;;4828026;29;19908;-78
2022/04/09 01:41:23;;;;;;;;;;;384.50;2048.00;;;;;;4828027;29;19916;-71
2022/04/09 01:43:48;;;;;;;;;;;384.50;2022.40;;;;;;4826467;29;19916;-69
2022/04/09 01:46:14;;;;;;;;;;;384.50;2048.00;;;;;;4827747;29;19909;-69
2022/04/09 01:48:41;;;;;;;;;;;384.60;2022.40;;;;;;4827615;29;19909;-70
2022/04/09 01:51:06;;;;;;;;;;;384.60;2022.40;;;;;;4827409;29;20037;-69
2022/04/09 01:53:34;;;;;;;;;;;384.60;2022.40;;;;;;4827503;29;20358;-79
2022/04/09 01:56:00;;;;;;;;;;;384.60;2022.40;;;;;;4827476;29;20340;-78
2022/04/09 01:58:25;;;;;;;;;;;384.60;2048.00;;;;;;4827501;29;19920;-75
2022/04/09 02:00:57;;;;;;;;;;;384.50;2022.40;;;;;;4826195;29;19909;-69
2022/04/09 02:03:23;;;;;;;;;;;384.50;2048.00;;;;;;4827556;29;19924;-70
2022/04/09 02:05:49;;;;;;;;;;;384.40;2048.00;;;;;;4827449;29;19909;-69
2022/04/09 02:08:14;;;;;;;;;;;384.40;2048.00;;;;;;4827292;29;20369;-70
2022/04/09 02:10:40;;;;;;;;;;;384.50;2048.00;;;;;;4827275;29;19909;-69
2022/04/09 02:13:12;;;;;;;;;;;384.50;2048.00;;;;;;4827193;29;19913;-69
2022/04/09 02:15:38;;;;;;;;;;;384.40;2048.00;;;;;;4827146;29;20042;-78
2022/04/09 02:18:04;;;;;;;;;;;384.40;2048.00;;;;;;4827140;29;20003;-70
2022/04/09 02:20:29;;;;;;;;;;;384.40;2048.00;;;;;;4827075;29;20022;-69
2022/04/09 02:22:55;;;;;;;;;;;384.40;2048.00;;;;;;4827104;29;19917;-78
2022/04/09 02:25:21;;;;;;;;;;;384.40;2073.60;;;;;;4827026;29;20256;-69
2022/04/09 02:27:47;;;;;;;;;;;384.30;2073.60;;;;;;4827134;29;19908;-71
2022/04/09 02:30:13;;;;;;;;;;;384.20;2073.60;;;;;;4826889;29;19909;-69
2022/04/09 02:32:45;;;;;;;;;;;384.10;2099.20;;;;;;4827164;29;19909;-69
2022/04/09 02:35:12;;;;;;;;;;;384.10;2099.20;;;;;;4826784;29;19996;-70
2022/04/09 02:37:39;;;;;;;;;;;384.10;2099.20;;;;;;4826001;29;19995;-74
2022/04/09 02:40:05;;;;;;;;;;;384.10;2099.20;;;;;;4826829;29;19912;-69
2022/04/09 02:42:31;;;;;;;;;;;384.10;2099.20;;;;;;4826884;29;20316;-70
2022/04/09 02:44:56;;;;;;;;;;;384.10;2099.20;;;;;;4826744;29;19913;-76
2022/04/09 02:47:22;;;;;;;;;;;384.00;2099.20;;;;;;4825542;29;19957;-73
2022/04/09 02:49:48;;;;;;;;;;;384.00;2124.80;;;;;;4826489;29;19909;-69
2022/04/09 02:52:13;;;;;;;;;;;384.00;2124.80;;;;;;4826601;29;19981;-70
2022/04/09 02:54:39;;;;;;;;;;;384.00;2124.80;;;;;;4825326;29;20003;-70
2022/04/09 02:57:05;;;;;;;;;;;384.00;2124.80;;;;;;4826559;29;19939;-69
2022/04/09 02:59:30;;;;;;;;;;;359.30;2150.40;;;;;;4826633;29;19909;-70
2022/04/09 03:01:58;;;;;;;;;;;359.20;2176.00;;;;;;4825935;29;19969;-73
2022/04/09 03:04:23;;;;;;;;;;;359.20;2176.00;;;;;;4826542;29;20362;-72
2022/04/09 03:06:49;;;;;;;;;;;359.20;2176.00;;;;;;4826501;29;19915;-72
2022/04/09 03:09:15;;;;;;;;;;;359.10;2201.60;;;;;;4826448;29;19972;-79
2022/04/09 03:11:41;;;;;;;;;;;359.00;2201.60;;;;;;4826646;29;20411;-79
2022/04/09 03:14:06;;;;;;;;;;;358.90;2227.20;;;;;;4826288;29;19995;-79
2022/04/09 03:16:32;;;;;;;;;;;358.90;2227.20;;;;;;4826290;29;19908;-79
2022/04/09 03:18:58;;;;;;;;;;;358.80;2252.80;;;;;;4826286;29;19916;-79
2022/04/09 03:21:24;;;;;;;;;;;358.70;2252.80;;;;;;4826257;29;20014;-69
2022/04/09 03:23:49;;;;;;;;;;;358.60;2278.40;;;;;;4826103;29;19924;-80
2022/04/09 03:26:15;;;;;;;;;;;358.60;2278.40;;;;;;4826093;29;20224;-79
2022/04/09 03:28:41;;;;;;;;;;;358.60;2278.40;;;;;;4824829;29;19983;-70
2022/04/09 03:31:09;;;;;;;;;;;358.50;2278.40;;;;;;4826072;29;20011;-71
2022/04/09 03:33:35;;;;;;;;;;;358.50;2278.40;;;;;;4826122;29;19915;-70
2022/04/09 03:36:01;;;;;;;;;;;358.50;2278.40;;;;;;4826034;29;19995;-80
2022/04/09 03:38:27;;;;;;;;;;;358.40;2278.40;;;;;;4825984;29;20011;-69
2022/04/09 03:40:52;;;;;;;;;;;358.40;2278.40;;;;;;4809558;29;20324;-79
2022/04/09 03:43:18;;;;;;;;;;;358.40;2278.40;;;;;;4825851;29;20015;-71
2022/04/09 03:45:44;;;;;;;;;;;358.40;2278.40;;;;;;4826090;29;19924;-72
2022/04/09 03:48:09;;;;;;;;;;;358.40;2278.40;;;;;;4825937;29;20419;-79
2022/04/09 03:50:36;;;;;;;;;;;358.40;2304.00;;;;;;4825214;29;19921;-69
2022/04/09 03:53:02;;;;;;;;;;;358.40;2329.60;;;;;;4826043;29;19916;-82
2022/04/09 03:55:29;;;;;;;;;;;358.40;2329.60;;;;;;4825761;29;19915;-69
2022/04/09 03:57:55;;;;;;;;;;;358.40;2329.60;;;;;;4825693;29;19908;-80
2022/04/09 04:00:21;;;;;;;;;;;333.70;2329.60;;;;;;4825651;29;20358;-81
2022/04/09 04:02:47;;;;;;;;;;;358.40;2329.60;;;;;;4825695;29;19960;-79
2022/04/09 04:05:12;;;;;;;;;;;333.70;2329.60;;;;;;4825643;29;19908;-80
2022/04/09 04:07:43;;;;;;;;;;;358.40;2329.60;;;;;;4825680;29;19972;-79
2022/04/09 04:10:10;;;;;;;;;;;358.40;2329.60;;;;;;4825707;29;20358;-69
2022/04/09 04:12:36;;;;;;;;;;;358.40;2329.60;;;;;;4824523;29;20278;-69
2022/04/09 04:15:02;;;;;;;;;;;358.40;2329.60;;;;;;4808934;29;20298;-80
2022/04/09 04:17:39;;;;;;;;;;;358.40;2329.60;;;;;;4825410;29;20422;-69
2022/04/09 04:20:05;;;;;;;;;;;358.40;2329.60;;;;;;4825369;29;20363;-80
2022/04/09 04:22:30;;;;;;;;;;;358.40;2329.60;;;;;;4825320;29;19924;-80
2022/04/09 04:24:56;;;;;;;;;;;358.40;2329.60;;;;;;4825428;29;19973;-79
2022/04/09 04:27:22;;;;;;;;;;;358.40;2329.60;;;;;;4825279;29;19909;-70
2022/04/09 04:29:47;;;;;;;;;;;358.40;2329.60;;;;;;4825301;29;20286;-69
2022/04/09 04:32:13;;;;;;;;;;;358.50;2329.60;;;;;;4825220;29;19915;-78
2022/04/09 04:34:39;;;;;;;;;;;358.50;2329.60;;;;;;4825197;29;19908;-82
2022/04/09 04:37:04;;;;;;;;;;;358.50;2329.60;;;;;;4825263;29;20016;-69
2022/04/09 04:39:30;;;;;;;;;;;358.50;2329.60;;;;;;4825147;29;19925;-78
2022/04/09 04:41:56;;;;;;;;;;;358.60;2329.60;;;;;;4825192;29;19909;-79
2022/04/09 04:44:21;;;;;;;;;;;358.60;2329.60;;;;;;4825092;29;19913;-70
2022/04/09 04:46:47;;;;;;;;;;;358.70;2329.60;;;;;;4825038;29;19999;-69
2022/04/09 04:49:13;;;;;;;;;;;358.70;2329.60;;;;;;4824986;29;19943;-70
2022/04/09 04:51:38;;;;;;;;;;;358.80;2329.60;;;;;;4824825;29;19936;-79
2022/04/09 04:54:05;;;;;;;;;;;358.80;2329.60;;;;;;4823739;29;19947;-79
2022/04/09 04:56:31;;;;;;;;;;;358.90;2329.60;;;;;;4824923;29;19909;-69
2022/04/09 04:58:56;;;;;;;;;;;358.90;2329.60;;;;;;4825083;29;20423;-71
2022/04/09 05:01:22;;;;;;;;;;;359.00;2329.60;;;;;;4826418;29;19909;-77
2022/04/09 05:03:48;;;;;;;;;;;359.00;2329.60;;;;;;4828405;29;19917;-80
2022/04/09 05:06:13;;;;;;;;;;;359.00;2329.60;;;;;;4828802;29;20382;-69
2022/04/09 05:08:40;;;;;;;;;;;359.10;2329.60;;;;;;4828712;29;19958;-79
2022/04/09 05:11:06;;;;;;;;;;;359.10;2329.60;;;;;;4828291;29;20374;-69
2022/04/09 05:13:31;;;;;;;;;;;359.30;2329.60;;;;;;4828242;29;19909;-78
2022/04/09 05:15:58;;;;;;;;;;;359.20;2329.60;;;;;;4828233;29;20003;-71
2022/04/09 05:18:24;;;;;;;;;;;384.00;2329.60;;;;;;4828130;29;19948;-80
2022/04/09 05:20:50;;;;;;;;;;;359.30;2329.60;;;;;;4828143;29;19948;-70
2022/04/09 05:23:16;;;;;;;;;;;384.00;2304.00;;;;;;4828000;29;20097;-80
2022/04/09 05:25:42;;;;;;;;;;;384.10;2304.00;;;;;;4828061;29;19909;-71
2022/04/09 05:28:10;;;;;;;;;;;384.20;2278.40;;;;;;4826798;29;19909;-80
2022/04/09 05:30:36;;;;;;;;;;;384.30;2278.40;;;;;;4828175;29;19920;-78
2022/04/09 05:33:03;;;;;;;;;;;384.30;2252.80;;;;;;4827958;29;19909;-79
2022/04/09 05:35:28;;;;;;;;;;;384.40;2278.40;;;;;;4827740;29;19913;-77
2022/04/09 05:37:54;;;;;;;;;;;384.40;2252.80;;;;;;4828069;29;19909;-78
2022/04/09 05:40:21;;;;;;;;;;;384.40;2278.40;;;;;;4827799;29;19987;-70
2022/04/09 05:42:47;;;;;;;;;;;384.50;2252.80;;;;;;4827611;29;19917;-71
2022/04/09 05:45:13;;;;;;;;;;;384.50;2278.40;;;;;;4827705;29;19996;-70
2022/04/09 05:47:39;;;;;;;;;;;384.60;2252.80;;;;;;4827934;29;19920;-70
2022/04/09 05:50:05;;;;;;;;;;;384.50;2278.40;;;;;;4827423;29;19908;-86
2022/04/09 05:52:31;;;;;;;;;;;384.60;2278.40;;;;;;4827669;29;20394;-72
2022/04/09 05:54:57;;;;;;;;;;;384.70;2252.80;;;;;;4827439;29;20306;-73
2022/04/09 05:57:22;;;;;;;;;;;384.70;2252.80;;;;;;4827507;29;19909;-70
2022/04/09 05:59:48;;;;;;;;;;;384.80;2252.80;;;;;;4827559;29;19908;-71
2022/04/09 06:02:14;;;;;;;;;;;384.80;2252.80;;;;;;4827425;29;19920;-76
2022/04/09 06:04:39;;;;;;;;;;;384.90;2227.20;;;;;;4827374;29;19988;-73
2022/04/09 06:07:05;;;;;;;;;;;384.90;2252.80;;;;;;4827344;29;19965;-71
2022/04/09 06:09:31;;;;;;;;;;;409.60;2278.40;;;;;;4827322;29;19912;-80
2022/04/09 06:11:57;;;;;;;;;;;409.70;2252.80;;;;;;4827623;29;19940;-73
2022/04/09 06:14:22;;;;;;;;;;;409.70;2278.40;;;;;;4827291;29;19941;-70
2022/04/09 06:16:49;;;;;;;;;;;409.70;2252.80;;;;;;4827256;29;20281;-69
2022/04/09 06:19:15;;;;;;;;;;;409.80;2252.80;;;;;;4827146;29;19991;-71
2022/04/09 06:21:40;;;;;;;;;;;409.80;2252.80;;;;;;4827202;29;20008;-69
2022/04/09 06:24:06;;;;;;;;;;;409.90;2227.20;;;;;;4827209;29;19921;-70
2022/04/09 06:26:32;;;;;;;;;;;410.00;2227.20;;;;;;4827035;29;20314;-70
2022/04/09 06:28:57;;;;;;;;;;;410.00;2227.20;;;;;;4826971;29;19909;-70
2022/04/09 06:31:23;;;;;;;;;;;410.10;2227.20;;;;;;4826972;29;19908;-73
2022/04/09 06:33:49;;;;;;;;;;;410.20;2201.60;;;;;;4827171;29;19916;-78
2022/04/09 06:36:15;;;;;;;;;;;410.30;2201.60;;;;;;4825657;29;19909;-76
2022/04/09 06:38:40;;;;;;;;;;;410.30;2176.00;;;;;;4825724;29;20337;-69
2022/04/09 06:41:06;;;;;;;;;;;410.40;2176.00;;;;;;4826901;29;20425;-70
2022/04/09 06:43:32;;;;;;;;;;;435.20;2176.00;;;;;;4826914;29;19972;-83
2022/04/09 06:45:57;;;;;;;;;;;435.20;2150.40;;;;;;4826731;29;19908;-70
2022/04/09 06:48:23;;;;;;;;;;;435.30;2150.40;;;;;;4826668;29;20049;-80
2022/04/09 06:50:49;;;;;;;;;;;435.40;2124.80;;;;;;4826711;29;19921;-76
2022/04/09 06:53:14;;;;;;;;;;;435.40;2124.80;;;;;;4826624;29;19908;-69
2022/04/09 06:55:41;;;;;;;;;;;435.40;2099.20;;;;;;4826514;29;20347;-70
2022/04/09 06:58:06;;;;;;;;;;;435.60;2099.20;;;;;;4826467;29;20382;-70
2022/04/09 07:00:33;;;;;;;;;;;435.60;2099.20;;;;;;4825248;29;19925;-70
2022/04/09 07:03:00;;;;;;;;;;;435.70;2073.60;;;;;;4826306;29;20015;-70
2022/04/09 07:05:26;;;;;;;;;;;435.80;2073.60;;;;;;4826387;29;19909;-69
2022/04/09 07:07:52;;;;;;;;;;;435.80;2073.60;;;;;;4826371;29;20391;-78
2022/04/09 07:10:18;;;;;;;;;;;435.80;2048.00;;;;;;4826441;29;19944;-70
2022/04/09 07:12:44;;;;;;;;;;;435.90;2048.00;;;;;;4830930;29;19913;-72
2022/04/09 07:15:10;;;;;;;;;;;435.90;2048.00;;;;;;4826515;29;19916;-77
2022/04/09 07:17:36;;;;;;;;;;;435.90;2073.60;;;;;;4826340;29;19957;-80
2022/04/09 07:20:03;;;;;;;;;;;436.00;2073.60;;;;;;4826189;29;19909;-71
2022/04/09 07:22:29;;;;;;;;;;;436.00;2048.00;;;;;;4826384;29;19912;-69
2022/04/09 07:24:55;;;;;;;;;;;436.00;2022.40;;;;;;4825569;29;19909;-69
2022/04/09 07:27:21;;;;;;;;;;;460.80;2073.60;;;;;;4826062;29;20026;-80
2022/04/09 07:29:47;;;;;;;;;;;460.80;2073.60;;;;;;4826117;29;19956;-74
2022/04/09 07:32:13;;;;;;;;;;;460.90;2048.00;;;;;;4826137;29;19913;-79
2022/04/09 07:34:38;;;;;;;;;;;461.00;2048.00;;;;;;4825876;29;19909;-78
2022/04/09 07:37:04;;;;;;;;;;;461.20;2022.40;;;;;;4825970;29;19909;-72
2022/04/09 07:39:30;;;;;;;;;;;461.20;1996.80;;;;;;4826375;29;19915;-83
2022/04/09 07:41:56;;;;;;;;;;;461.40;1996.80;;;;;;4825974;29;19909;-71
2022/04/09 07:44:22;;;;;;;;;;;461.50;1971.20;;;;;;4809436;29;20374;-70
2022/04/09 07:46:48;;;;;;;;;;;461.70;1920.00;;;;;;4808852;29;19909;-71
2022/04/09 07:49:14;;;;;;;;;;;486.40;1920.00;;;;;;4825427;29;19965;-81
2022/04/09 07:51:40;;;;;;;;;;;486.60;1894.40;;;;;;4826818;29;19921;-80
2022/04/09 07:54:06;;;;;;;;;;;486.70;1868.80;;;;;;4833124;29;19909;-85
2022/04/09 07:56:31;;;;;;;;;;;486.80;1843.20;;;;;;4835246;29;20009;-71
2022/04/09 07:58:57;;;;;;;;;;;487.10;1792.00;;;;;;4833109;29;19957;-71
2022/04/09 08:01:23;;;;;;;;;;;487.10;1766.40;;;;;;4832393;29;19959;-69
2022/04/09 08:03:49;;;;;;;;;;;487.10;1740.80;;;;;;4835111;29;19916;-71
2022/04/09 08:06:15;;;;;;;;;;;487.20;1740.80;;;;;;4832728;29;19908;-69
2022/04/09 08:08:41;;;;;;;;;;;487.30;1740.80;;;;;;4834575;29;19908;-69
2022/04/09 08:11:06;;;;;;;;;;;512.00;1715.20;;;;;;4834144;29;19985;-69
2022/04/09 08:13:33;;;;;;;;;;;512.10;1715.20;;;;;;4832981;29;19909;-71
2022/04/09 08:15:59;;;;;;;;;;;512.20;1689.60;;;;;;4834511;29;19908;-70
2022/04/09 08:18:25;;;;;;;;;;;512.30;1689.60;;;;;;4832401;29;19964;-71
2022/04/09 08:20:51;;;;;;;;;;;512.50;1689.60;;;;;;4834637;29;19909;-75
2022/04/09 08:23:17;;;;;;;;;;;512.70;1638.40;;;;;;4832724;29;20020;-73
2022/04/09 08:25:42;;;;;;;;;;;512.70;1638.40;;;;;;4837049;29;20374;-72
2022/04/09 08:28:08;;;;;;;;;;;512.60;1612.80;;;;;;4818149;29;20255;-70
2022/04/09 08:30:34;;;;;;;;;;;512.50;1638.40;;;;;;4830596;29;20386;-72
2022/04/09 08:33:05;;;;;;;;;;;512.50;1612.80;;;;;;4839922;29;19913;-84
2022/04/09 08:35:31;;;;;;;;;;;512.70;1587.20;;;;;;4827252;29;19920;-79
2022/04/09 08:37:56;;;;;;;;;;;512.70;1638.40;;;;;;4838864;29;19917;-73
2022/04/09 08:40:22;;;;;;;;;;;512.70;1612.80;;;;;;4830863;29;19931;-73
2022/04/09 08:42:48;;;;;;;;;;;512.50;1587.20;;;;;;4845262;29;20011;-76
2022/04/09 08:45:15;;;;;;;;;;;512.50;1612.80;;;;;;4832978;29;19908;-89
2022/04/09 08:47:42;;;;;;;;;;;512.50;1612.80;;;;;;4834945;29;19909;-71
2022/04/09 08:50:09;;;;;;;;;;;512.40;1612.80;;;;;;4835428;29;19915;-80
2022/04/09 08:52:37;;;;;;;;;;;512.30;1612.80;;;;;;4833009;29;20286;-76
2022/04/09 08:55:03;;;;;;;;;;;512.10;1612.80;;;;;;4834619;29;19916;-86
2022/04/09 08:57:29;;;;;;;;;;;512.10;1612.80;;;;;;4840771;29;19912;-73
2022/04/09 08:59:55;;;;;;;;;;;512.00;1638.40;;;;;;4820853;29;19912;-86
2022/04/09 09:02:21;;;;;;;;;;;512.00;1638.40;;;;;;4825496;29;20263;-81
2022/04/09 09:04:46;;;;;;;;;;;512.10;1612.80;;;;;;4843243;29;20059;-78
2022/04/09 09:07:20;;;;;;;;;;;512.10;1612.80;;;;;;4842048;29;20007;-74
2022/04/09 09:09:46;;;;;;;;;;;512.20;1612.80;;;;;;4811767;29;19913;-73
2022/04/09 09:12:12;;;;;;;;;;;512.20;1587.20;;;;;;4838849;29;19916;-73
2022/04/09 09:14:43;;;;;;;;;;;512.10;1587.20;;;;;;4816215;29;19980;-82
2022/04/09 09:17:09;;;;;;;;;;;512.20;1587.20;;;;;;4831412;29;20084;-84
2022/04/09 09:19:42;;;;;;;;;;;512.20;1587.20;;;;;;4839616;29;19912;-77
2022/04/09 09:22:08;;;;;;;;;;;512.30;1587.20;;;;;;4828565;29;19912;-84
2022/04/09 09:24:34;;;;;;;;;;;512.40;1561.60;;;;;;4836477;29;19936;-84
2022/04/09 09:27:00;;;;;;;;;;;512.50;1561.60;;;;;;4819100;29;19931;-86
2022/04/09 09:29:27;;;;;;;;;;;512.60;1536.00;;;;;;4829251;29;19937;-84
2022/04/09 09:31:54;;;;;;;;;;;512.60;1536.00;;;;;;4839821;29;19912;-84
2022/04/09 09:34:19;;;;;;;;;;;512.80;1536.00;;;;;;4830300;29;19951;-81
2022/04/09 09:36:45;;;;;;;;;;;512.90;1536.00;;;;;;4818028;29;19947;-83
2022/04/09 09:39:12;;;;;;;;;;;512.80;1536.00;;;;;;4820101;29;20327;-74
2022/04/09 09:41:57;;;;;;;;;;;512.70;1510.40;;;;;;4831828;29;19919;-85
2022/04/09 09:44:27;;;;;;;;;;;512.60;1561.60;;;;;;4836901;29;19917;-71
2022/04/09 09:46:54;;;;;;;;;;;512.50;1510.40;;;;;;4828665;29;19913;-73
2022/04/09 09:49:22;;;;;;;;;;;512.50;1510.40;;;;;;4837681;29;19912;-73
2022/04/09 09:52:07;;;;;;;;;;;512.50;1510.40;;;;;;4818394;29;19921;-85
2022/04/09 09:54:32;;;;;;;;;;;512.50;1510.40;;;;;;4837054;29;19908;-74
2022/04/09 09:56:58;;;;;;;;;;;512.40;1510.40;;;;;;4821364;29;20003;-72
2022/04/09 09:59:27;;;;;;;;;;;512.30;1536.00;;;;;;4815693;29;19909;-74
2022/04/09 10:01:54;;;;;;;;;;;512.30;1510.40;;;;;;4837879;29;20003;-70
2022/04/09 10:04:20;;;;;;;;;;;512.20;1510.40;;;;;;4830379;29;19924;-71
2022/04/09 10:06:45;;;;;;;;;;;512.10;1510.40;;;;;;4858894;29;19908;-81
2022/04/09 10:09:15;;;;;;;;;;;512.10;1484.80;;;;;;4838266;29;19913;-86
2022/04/09 10:11:46;;;;;;;;;;;512.00;1536.00;;;;;;4838482;29;19952;-73
2022/04/09 10:14:14;;;;;;;;;;;512.00;1510.40;;;;;;4830567;29;19908;-72
2022/04/09 10:16:43;;;;;;;;;;;512.00;1510.40;;;;;;4830581;29;19909;-72
2022/04/09 10:19:10;;;;;;;;;;;512.00;1536.00;;;;;;4838754;29;20397;-72
2022/04/09 10:21:38;;;;;;;;;;;487.20;1536.00;;;;;;4834988;29;19912;-72
2022/04/09 10:24:05;;;;;;;;;;;487.20;1536.00;;;;;;4831330;29;19924;-76
2022/04/09 10:26:31;;;;;;;;;;;487.20;1536.00;;;;;;4831692;29;19916;-85
2022/04/09 10:29:08;;;;;;;;;;;487.20;1536.00;;;;;;4839673;29;20298;-74
2022/04/09 10:31:41;;;;;;;;;;;487.20;1536.00;;;;;;4837238;29;20009;-72
2022/04/09 10:34:07;;;;;;;;;;;487.20;1536.00;;;;;;4834647;29;19923;-73
2022/04/09 10:36:45;;;;;;;;;;;487.20;1536.00;;;;;;4834686;29;20382;-72
2022/04/09 10:39:31;;;;;;;;;;;512.00;1536.00;;;;;;4842039;29;19965;-75
2022/04/09 10:41:57;;;;;;;;;;;512.00;1561.60;;;;;;4839829;29;19965;-76
2022/04/09 10:44:41;;;;;;;;;;;512.10;1536.00;;;;;;4829238;29;19917;-81
2022/04/09 10:47:07;;;;;;;;;;;512.20;1536.00;;;;;;4829598;29;20340;-72
2022/04/09 10:49:33;;;;;;;;;;;512.30;1510.40;;;;;;4836339;29;19968;-73
2022/04/09 10:52:01;;;;;;;;;;;512.30;1536.00;;;;;;4844924;29;19920;-84
2022/04/09 10:54:27;;;;;;;;;;;512.40;1536.00;;;;;;4836864;29;20504;-73
2022/04/09 10:56:53;;;;;;;;;;;512.50;1510.40;;;;;;4835510;29;19969;-73
2022/04/09 10:59:21;;;;;;;;;;;512.50;1510.40;;;;;;4820946;29;19958;-79
2022/04/09 11:01:50;;;;;;;;;;;512.60;1484.80;;;;;;4839886;29;19984;-73
2022/04/09 11:04:37;;;;;;;;;;;512.70;1510.40;;;;;;4844783;29;19924;-72
2022/04/09 11:07:05;;;;;;;;;;;512.80;1484.80;;;;;;4836321;29;19913;-72
2022/04/09 11:09:44;;;;;;;;;;;512.90;1510.40;;;;;;4842698;29;19958;-78
2022/04/09 11:12:11;;;;;;;;;;;512.60;1510.40;;;;;;4844606;29;19951;-70
2022/04/09 11:14:47;;;;;;;;;;;461.30;1766.40;;;;;;4827785;29;19912;-71
2022/04/09 11:17:16;;;;;;;;;;;435.40;1894.40;;;;;;4844514;29;19916;-75
2022/04/09 11:19:42;;;;;;;;;;;410.10;1971.20;;;;;;4842921;29;19963;-78
2022/04/09 11:22:09;;;;;;;;;;;384.70;2048.00;;;;;;4827963;29;20467;-75
2022/04/09 11:24:38;;;;;;;;;;;384.30;2073.60;;;;;;4824550;29;20689;-71
2022/04/09 11:27:04;;;;;;;;;;;384.10;2124.80;;;;;;4834263;29;19917;-74
2022/04/09 11:29:33;;;;;;;;;;;359.30;2201.60;;;;;;4826852;29;19956;-71
2022/04/09 11:31:59;;;;;;;;;;;359.20;2227.20;;;;;;4844274;29;20008;-73
2022/04/09 11:34:27;;;;;;;;;;;358.90;2278.40;;;;;;4858370;29;19991;-70
2022/04/09 11:36:53;;;;;;;;;;;;;;;;;;4853300;29;19912;-78
2022/04/09 11:39:18;;;;;;;;;;;;;;;;;;4825938;29;19973;-73
2022/04/09 11:41:44;;;;;;;;;;;;;;;;;;4825904;29;20355;-77
2022/04/09 11:44:10;;;;;;;;;;;359.20;2252.80;;;;;;4825927;29;19924;-81
2022/04/09 11:46:45;;;;;;;;;;;359.20;2304.00;;;;;;4809343;29;19909;-74
2022/04/09 11:49:10;;;;;;;;;;;384.30;2252.80;;;;;;4824972;29;19995;-68
2022/04/09 11:51:36;;;;;;;;;;;384.60;2227.20;;;;;;4834387;29;20064;-80
2022/04/09 11:54:15;;;;;;;;;;;384.80;2150.40;;;;;;4833400;29;19909;-67
2022/04/09 11:56:40;;;;;;;;;;;384.80;2150.40;;;;;;4833525;29;20370;-72
2022/04/09 11:59:10;;;;;;;;;;;409.70;2150.40;;;;;;4834424;29;19909;-81
2022/04/09 12:01:36;;;;;;;;;;;384.80;2150.40;;;;;;4835061;29;20011;-70
2022/04/09 12:04:02;;;;;;;;;;;384.40;2176.00;;;;;;4826677;29;20014;-68
2022/04/09 12:06:28;;;;;;;;;;;384.00;2201.60;;;;;;4835054;29;19917;-68
2022/04/09 12:08:53;;;;;;;;;;;384.00;2201.60;;;;;;4833347;29;19920;-69
2022/04/09 12:11:20;;;;;;;;;;;359.30;2150.40;;;;;;4831556;29;19909;-69
2022/04/09 12:13:46;;;;;;;;;;;359.10;2048.00;;;;;;4825453;29;19909;-69
2022/04/09 12:16:12;;;;;;;;;;;359.20;2022.40;;;;;;4830067;29;20373;-71
2022/04/09 12:18:38;;;;;;;;;;;359.10;2022.40;;;;;;4837024;29;19915;-71
2022/04/09 12:21:20;;;;;;;;;;;358.60;2073.60;;;;;;4843600;29;19916;-69
2022/04/09 12:23:46;;;;;;;;;;;358.40;2099.20;;;;;;4843607;29;19965;-69
2022/04/09 12:26:21;;;;;;;;;;;358.60;2073.60;;;;;;4843383;29;19908;-68
2022/04/09 12:28:47;;;;;;;;;;;333.70;2073.60;;;;;;4832597;29;20306;-70
2022/04/09 12:31:25;;;;;;;;;;;333.50;2099.20;;;;;;4834634;29;19908;-72
2022/04/09 12:33:57;;;;;;;;;;;333.40;2150.40;;;;;;4834618;29;19908;-71
2022/04/09 12:36:23;;;;;;;;;;;333.40;2150.40;;;;;;4834166;29;19965;-68
2022/04/09 12:38:48;;;;;;;;;;;333.20;2150.40;;;;;;4835044;29;19913;-76
2022/04/09 12:41:14;;;;;;;;;;;333.30;2150.40;;;;;;4832065;29;19915;-80
2022/04/09 12:43:41;;;;;;;;;;;333.40;2124.80;;;;;;4833645;29;19924;-68
2022/04/09 12:46:09;;;;;;;;;;;333.30;2150.40;;;;;;4834696;29;19928;-82
2022/04/09 12:48:38;;;;;;;;;;;333.40;2150.40;;;;;;4831842;29;20362;-80
2022/04/09 12:51:04;;;;;;;;;;;333.40;2150.40;;;;;;4814266;29;20045;-72
2022/04/09 12:53:30;;;;;;;;;;;333.40;2124.80;;;;;;4815069;29;19909;-71
2022/04/09 12:55:56;;;;;;;;;;;333.10;2150.40;;;;;;4815056;29;19909;-73
2022/04/09 12:58:21;;;;;;;;;;;332.80;2150.40;;;;;;4816274;29;19949;-77
2022/04/09 13:00:47;;;;;;;;;;;308.00;2099.20;;;;;;4814629;29;19919;-72
2022/04/09 13:03:13;;;;;;;;;;;307.70;2124.80;;;;;;4815406;29;19933;-82
2022/04/09 13:05:41;;;;;;;;;;;307.40;2176.00;;;;;;4816122;29;20367;-70
2022/04/09 13:08:07;;;;;;;;;;;282.40;2201.60;;;;;;4814476;29;19916;-85
2022/04/09 13:10:36;;;;;;;;;;;282.20;2227.20;;;;;;4814105;29;19909;-77
2022/04/09 13:13:01;;;;;;;;;;;282.10;2278.40;;;;;;4816158;29;20015;-69
2022/04/09 13:15:27;;;;;;;;;;;281.90;2278.40;;;;;;4814706;29;20031;-73
2022/04/09 13:17:53;;;;;;;;;;;282.00;2278.40;;;;;;4815345;29;19920;-69
2022/04/09 13:20:19;;;;;;;;;;;282.10;2278.40;;;;;;4815573;29;19909;-70
2022/04/09 13:22:44;;;;;;;;;;;281.90;2278.40;;;;;;4815817;29;19923;-72
2022/04/09 13:25:12;;;;;;;;;;;282.10;2278.40;;;;;;4819223;29;20351;-72
2022/04/09 13:27:38;;;;;;;;;;;282.30;2278.40;;;;;;4819336;29;19909;-70
2022/04/09 13:30:04;;;;;;;;;;;282.30;2278.40;;;;;;4817584;29;20355;-69
2022/04/09 13:32:30;;;;;;;;;;;282.30;2278.40;;;;;;4818914;29;19958;-69
2022/04/09 13:34:56;;;;;;;;;;;282.30;2278.40;;;;;;4818527;29;19952;-69
2022/04/09 13:37:22;;;;;;;;;;;282.20;2278.40;;;;;;4817363;29;19917;-69
2022/04/09 13:39:54;;;;;;;;;;;282.10;2278.40;;;;;;4819259;29;19913;-81